sensor_id;sensor_type;location;lat;lon;timestamp;P1;durP1;ratioP1;P2;durP2;ratioP2
51523;SDS011;37610;51.790;21.590;2023-04-24T00:02:29;14.90;;;9.70;;
51523;SDS011;37610;51.790;21.590;2023-04-24T00:06:31;19.50;;;9.40;;
51523;SDS011;37610;51.790;21.590;2023-04-24T00:10:36;17.50;;;9.10;;
51523;SDS011;37610;51.790;21.590;2023-04-24T00:14:37;13.10;;;8.90;;
51523;SDS011;37610;51.790;21.590;2023-04-24T00:18:39;19.40;;;10.00;;
51523;SDS011;37610;51.790;21.590;2023-04-24T00:22:40;17.20;;;9.70;;
51523;SDS011;37610;51.790;21.590;2023-04-24T00:26:42;17.70;;;9.30;;
51523;SDS011;37610;51.790;21.590;2023-04-24T00:30:43;19.00;;;9.80;;
51523;SDS011;37610;51.790;21.590;2023-04-24T00:34:45;15.80;;;9.30;;
51523;SDS011;37610;51.790;21.590;2023-04-24T00:38:46;15.10;;;10.30;;
51523;SDS011;37610;51.790;21.590;2023-04-24T00:42:48;19.20;;;10.70;;
51523;SDS011;37610;51.790;21.590;2023-04-24T00:46:49;17.20;;;9.30;;
51523;SDS011;37610;51.790;21.590;2023-04-24T00:50:55;17.30;;;9.10;;
51523;SDS011;37610;51.790;21.590;2023-04-24T00:54:57;16.90;;;9.90;;
51523;SDS011;37610;51.790;21.590;2023-04-24T00:58:58;15.80;;;9.70;;
51523;SDS011;37610;51.790;21.590;2023-04-24T01:03:00;16.30;;;9.60;;
51523;SDS011;37610;51.790;21.590;2023-04-24T01:07:03;11.90;;;8.30;;
51523;SDS011;37610;51.790;21.590;2023-04-24T01:11:05;16.80;;;8.60;;
51523;SDS011;37610;51.790;21.590;2023-04-24T01:15:07;12.10;;;8.20;;
51523;SDS011;37610;51.790;21.590;2023-04-24T01:19:10;15.90;;;8.20;;
51523;SDS011;37610;51.790;21.590;2023-04-24T01:23:12;16.80;;;8.60;;
51523;SDS011;37610;51.790;21.590;2023-04-24T01:27:14;11.90;;;8.30;;
51523;SDS011;37610;51.790;21.590;2023-04-24T01:31:15;16.90;;;9.30;;
51523;SDS011;37610;51.790;21.590;2023-04-24T01:35:17;13.70;;;8.40;;
51523;SDS011;37610;51.790;21.590;2023-04-24T01:39:18;12.80;;;8.30;;
51523;SDS011;37610;51.790;21.590;2023-04-24T01:43:21;14.40;;;8.00;;
51523;SDS011;37610;51.790;21.590;2023-04-24T01:47:23;14.60;;;8.70;;
51523;SDS011;37610;51.790;21.590;2023-04-24T01:51:25;16.80;;;8.70;;
51523;SDS011;37610;51.790;21.590;2023-04-24T01:55:28;14.30;;;9.20;;
51523;SDS011;37610;51.790;21.590;2023-04-24T01:59:29;13.00;;;8.10;;
51523;SDS011;37610;51.790;21.590;2023-04-24T02:03:31;17.80;;;9.10;;
51523;SDS011;37610;51.790;21.590;2023-04-24T02:07:32;16.30;;;8.50;;
51523;SDS011;37610;51.790;21.590;2023-04-24T02:11:34;18.30;;;9.00;;
51523;SDS011;37610;51.790;21.590;2023-04-24T02:15:35;17.60;;;9.20;;
51523;SDS011;37610;51.790;21.590;2023-04-24T02:19:37;13.20;;;8.70;;
51523;SDS011;37610;51.790;21.590;2023-04-24T02:23:38;16.30;;;9.70;;
51523;SDS011;37610;51.790;21.590;2023-04-24T02:27:40;15.80;;;8.40;;
51523;SDS011;37610;51.790;21.590;2023-04-24T02:31:41;17.40;;;8.80;;
51523;SDS011;37610;51.790;21.590;2023-04-24T02:35:43;14.90;;;8.30;;
51523;SDS011;37610;51.790;21.590;2023-04-24T02:39:44;12.50;;;8.20;;
51523;SDS011;37610;51.790;21.590;2023-04-24T02:43:46;18.70;;;8.30;;
51523;SDS011;37610;51.790;21.590;2023-04-24T02:47:47;18.80;;;8.90;;
51523;SDS011;37610;51.790;21.590;2023-04-24T02:51:48;17.50;;;9.50;;
51523;SDS011;37610;51.790;21.590;2023-04-24T02:55:50;17.60;;;8.80;;
51523;SDS011;37610;51.790;21.590;2023-04-24T02:59:52;12.80;;;9.00;;
51523;SDS011;37610;51.790;21.590;2023-04-24T03:03:53;14.30;;;8.30;;
51523;SDS011;37610;51.790;21.590;2023-04-24T03:07:55;14.40;;;8.60;;
51523;SDS011;37610;51.790;21.590;2023-04-24T03:11:56;19.10;;;8.90;;
51523;SDS011;37610;51.790;21.590;2023-04-24T03:15:59;12.50;;;8.60;;
51523;SDS011;37610;51.790;21.590;2023-04-24T03:20:01;16.60;;;8.90;;
51523;SDS011;37610;51.790;21.590;2023-04-24T03:24:02;19.80;;;8.20;;
51523;SDS011;37610;51.790;21.590;2023-04-24T03:28:04;12.90;;;8.20;;
51523;SDS011;37610;51.790;21.590;2023-04-24T03:32:06;14.70;;;8.60;;
51523;SDS011;37610;51.790;21.590;2023-04-24T03:36:07;14.50;;;8.60;;
51523;SDS011;37610;51.790;21.590;2023-04-24T03:40:08;12.10;;;8.20;;
51523;SDS011;37610;51.790;21.590;2023-04-24T03:44:10;13.00;;;7.80;;
51523;SDS011;37610;51.790;21.590;2023-04-24T03:48:11;19.70;;;8.90;;
51523;SDS011;37610;51.790;21.590;2023-04-24T03:52:13;15.70;;;8.40;;
51523;SDS011;37610;51.790;21.590;2023-04-24T03:56:14;19.10;;;8.20;;
51523;SDS011;37610;51.790;21.590;2023-04-24T04:00:16;17.10;;;8.50;;
51523;SDS011;37610;51.790;21.590;2023-04-24T04:04:17;13.70;;;8.10;;
51523;SDS011;37610;51.790;21.590;2023-04-24T04:08:19;13.00;;;7.40;;
51523;SDS011;37610;51.790;21.590;2023-04-24T04:12:20;10.40;;;7.10;;
51523;SDS011;37610;51.790;21.590;2023-04-24T04:16:22;12.20;;;7.80;;
51523;SDS011;37610;51.790;21.590;2023-04-24T04:20:24;12.30;;;8.90;;
51523;SDS011;37610;51.790;21.590;2023-04-24T04:24:25;15.40;;;9.30;;
51523;SDS011;37610;51.790;21.590;2023-04-24T04:28:27;12.80;;;8.00;;
51523;SDS011;37610;51.790;21.590;2023-04-24T04:32:29;16.20;;;9.70;;
51523;SDS011;37610;51.790;21.590;2023-04-24T04:36:30;13.60;;;8.40;;
51523;SDS011;37610;51.790;21.590;2023-04-24T04:40:32;15.70;;;8.00;;
51523;SDS011;37610;51.790;21.590;2023-04-24T04:44:33;12.40;;;7.80;;
51523;SDS011;37610;51.790;21.590;2023-04-24T04:48:37;16.70;;;7.10;;
51523;SDS011;37610;51.790;21.590;2023-04-24T04:52:39;10.80;;;7.30;;
51523;SDS011;37610;51.790;21.590;2023-04-24T04:56:40;11.60;;;7.10;;
51523;SDS011;37610;51.790;21.590;2023-04-24T05:00:42;13.30;;;8.40;;
51523;SDS011;37610;51.790;21.590;2023-04-24T05:04:43;12.90;;;7.20;;
51523;SDS011;37610;51.790;21.590;2023-04-24T05:08:46;12.00;;;7.60;;
51523;SDS011;37610;51.790;21.590;2023-04-24T05:12:47;12.40;;;7.40;;
51523;SDS011;37610;51.790;21.590;2023-04-24T05:16:50;12.00;;;7.40;;
51523;SDS011;37610;51.790;21.590;2023-04-24T05:20:52;10.90;;;6.80;;
51523;SDS011;37610;51.790;21.590;2023-04-24T05:24:53;13.10;;;6.60;;
51523;SDS011;37610;51.790;21.590;2023-04-24T05:28:54;12.10;;;7.30;;
51523;SDS011;37610;51.790;21.590;2023-04-24T05:32:56;13.10;;;7.00;;
51523;SDS011;37610;51.790;21.590;2023-04-24T05:36:58;10.90;;;7.30;;
51523;SDS011;37610;51.790;21.590;2023-04-24T05:40:59;12.20;;;6.90;;
51523;SDS011;37610;51.790;21.590;2023-04-24T05:45:01;14.40;;;7.00;;
51523;SDS011;37610;51.790;21.590;2023-04-24T05:49:02;14.60;;;7.60;;
51523;SDS011;37610;51.790;21.590;2023-04-24T05:53:04;13.10;;;7.50;;
51523;SDS011;37610;51.790;21.590;2023-04-24T05:57:05;14.30;;;7.00;;
51523;SDS011;37610;51.790;21.590;2023-04-24T06:05:10;11.10;;;6.30;;
51523;SDS011;37610;51.790;21.590;2023-04-24T06:09:12;14.70;;;7.60;;
51523;SDS011;37610;51.790;21.590;2023-04-24T06:13:14;12.10;;;6.80;;
51523;SDS011;37610;51.790;21.590;2023-04-24T06:17:15;12.70;;;5.70;;
51523;SDS011;37610;51.790;21.590;2023-04-24T06:21:17;12.40;;;7.10;;
51523;SDS011;37610;51.790;21.590;2023-04-24T06:25:18;13.80;;;6.70;;
51523;SDS011;37610;51.790;21.590;2023-04-24T06:29:20;11.10;;;7.30;;
51523;SDS011;37610;51.790;21.590;2023-04-24T06:33:22;13.80;;;7.90;;
51523;SDS011;37610;51.790;21.590;2023-04-24T06:37:23;12.60;;;7.90;;
51523;SDS011;37610;51.790;21.590;2023-04-24T06:41:25;25.80;;;8.70;;
51523;SDS011;37610;51.790;21.590;2023-04-24T06:45:27;19.40;;;7.70;;
51523;SDS011;37610;51.790;21.590;2023-04-24T06:49:28;17.90;;;8.00;;
51523;SDS011;37610;51.790;21.590;2023-04-24T06:53:29;12.20;;;7.80;;
51523;SDS011;37610;51.790;21.590;2023-04-24T06:57:31;10.60;;;7.00;;
51523;SDS011;37610;51.790;21.590;2023-04-24T07:01:33;12.60;;;7.90;;
51523;SDS011;37610;51.790;21.590;2023-04-24T07:05:34;12.40;;;7.20;;
51523;SDS011;37610;51.790;21.590;2023-04-24T07:09:36;9.70;;;6.50;;
51523;SDS011;37610;51.790;21.590;2023-04-24T07:13:40;12.90;;;7.90;;
51523;SDS011;37610;51.790;21.590;2023-04-24T07:21:45;10.70;;;7.00;;
51523;SDS011;37610;51.790;21.590;2023-04-24T07:25:47;13.80;;;7.80;;
51523;SDS011;37610;51.790;21.590;2023-04-24T07:29:48;19.40;;;8.10;;
51523;SDS011;37610;51.790;21.590;2023-04-24T07:33:50;14.80;;;7.50;;
51523;SDS011;37610;51.790;21.590;2023-04-24T07:37:54;17.80;;;8.00;;
51523;SDS011;37610;51.790;21.590;2023-04-24T07:41:56;14.80;;;7.90;;
51523;SDS011;37610;51.790;21.590;2023-04-24T07:45:58;13.00;;;7.50;;
51523;SDS011;37610;51.790;21.590;2023-04-24T07:49:59;13.20;;;6.90;;
51523;SDS011;37610;51.790;21.590;2023-04-24T07:54:01;15.80;;;7.10;;
51523;SDS011;37610;51.790;21.590;2023-04-24T07:58:03;13.80;;;6.70;;
51523;SDS011;37610;51.790;21.590;2023-04-24T08:02:04;10.30;;;6.30;;
51523;SDS011;37610;51.790;21.590;2023-04-24T08:06:07;13.10;;;7.20;;
51523;SDS011;37610;51.790;21.590;2023-04-24T08:10:11;9.10;;;5.70;;
51523;SDS011;37610;51.790;21.590;2023-04-24T08:14:13;10.50;;;6.90;;
51523;SDS011;37610;51.790;21.590;2023-04-24T08:18:16;10.90;;;6.40;;
51523;SDS011;37610;51.790;21.590;2023-04-24T08:22:17;12.10;;;6.80;;
51523;SDS011;37610;51.790;21.590;2023-04-24T08:26:19;10.40;;;6.10;;
51523;SDS011;37610;51.790;21.590;2023-04-24T08:30:20;9.00;;;6.20;;
51523;SDS011;37610;51.790;21.590;2023-04-24T08:34:22;10.00;;;6.50;;
51523;SDS011;37610;51.790;21.590;2023-04-24T08:38:23;9.10;;;6.70;;
51523;SDS011;37610;51.790;21.590;2023-04-24T08:42:24;10.00;;;6.60;;
51523;SDS011;37610;51.790;21.590;2023-04-24T08:46:29;12.20;;;6.70;;
51523;SDS011;37610;51.790;21.590;2023-04-24T08:50:31;11.30;;;5.80;;
51523;SDS011;37610;51.790;21.590;2023-04-24T08:54:36;10.40;;;6.40;;
51523;SDS011;37610;51.790;21.590;2023-04-24T08:58:37;11.00;;;5.60;;
51523;SDS011;37610;51.790;21.590;2023-04-24T09:02:41;11.90;;;6.30;;
51523;SDS011;37610;51.790;21.590;2023-04-24T09:06:43;13.70;;;6.20;;
51523;SDS011;37610;51.790;21.590;2023-04-24T09:10:46;12.80;;;5.30;;
51523;SDS011;37610;51.790;21.590;2023-04-24T09:14:47;19.20;;;5.90;;
51523;SDS011;37610;51.790;21.590;2023-04-24T09:18:49;16.00;;;7.10;;
51523;SDS011;37610;51.790;21.590;2023-04-24T09:22:53;17.20;;;5.60;;
51523;SDS011;37610;51.790;21.590;2023-04-24T09:26:56;12.60;;;5.80;;
51523;SDS011;37610;51.790;21.590;2023-04-24T09:31:08;20.50;;;8.60;;
51523;SDS011;37610;51.790;21.590;2023-04-24T09:35:11;8.90;;;5.50;;
51523;SDS011;37610;51.790;21.590;2023-04-24T09:39:14;9.50;;;5.50;;
51523;SDS011;37610;51.790;21.590;2023-04-24T09:43:18;16.60;;;5.60;;
51523;SDS011;37610;51.790;21.590;2023-04-24T09:47:20;16.90;;;6.00;;
51523;SDS011;37610;51.790;21.590;2023-04-24T09:51:35;10.20;;;5.70;;
51523;SDS011;37610;51.790;21.590;2023-04-24T09:55:42;11.00;;;6.30;;
51523;SDS011;37610;51.790;21.590;2023-04-24T09:59:46;61.70;;;7.60;;
51523;SDS011;37610;51.790;21.590;2023-04-24T10:03:47;8.70;;;5.20;;
51523;SDS011;37610;51.790;21.590;2023-04-24T10:07:49;11.80;;;5.60;;
51523;SDS011;37610;51.790;21.590;2023-04-24T10:11:51;9.90;;;6.10;;
51523;SDS011;37610;51.790;21.590;2023-04-24T10:15:53;30.10;;;8.20;;
51523;SDS011;37610;51.790;21.590;2023-04-24T10:19:54;12.50;;;6.70;;
51523;SDS011;37610;51.790;21.590;2023-04-24T10:23:56;12.60;;;5.80;;
51523;SDS011;37610;51.790;21.590;2023-04-24T10:28:01;7.70;;;5.80;;
51523;SDS011;37610;51.790;21.590;2023-04-24T10:32:02;33.30;;;6.40;;
51523;SDS011;37610;51.790;21.590;2023-04-24T10:36:04;13.80;;;5.70;;
51523;SDS011;37610;51.790;21.590;2023-04-24T10:40:06;13.20;;;6.30;;
51523;SDS011;37610;51.790;21.590;2023-04-24T10:44:13;81.20;;;9.20;;
51523;SDS011;37610;51.790;21.590;2023-04-24T10:48:15;9.30;;;5.60;;
51523;SDS011;37610;51.790;21.590;2023-04-24T10:52:17;14.30;;;5.80;;
51523;SDS011;37610;51.790;21.590;2023-04-24T10:56:19;25.20;;;6.30;;
51523;SDS011;37610;51.790;21.590;2023-04-24T11:00:24;11.30;;;6.50;;
51523;SDS011;37610;51.790;21.590;2023-04-24T11:04:29;10.30;;;5.40;;
51523;SDS011;37610;51.790;21.590;2023-04-24T11:08:44;12.00;;;5.50;;
51523;SDS011;37610;51.790;21.590;2023-04-24T11:12:46;15.50;;;5.10;;
51523;SDS011;37610;51.790;21.590;2023-04-24T11:16:54;10.60;;;5.60;;
51523;SDS011;37610;51.790;21.590;2023-04-24T11:20:58;17.50;;;5.50;;
51523;SDS011;37610;51.790;21.590;2023-04-24T11:25:00;14.10;;;5.60;;
51523;SDS011;37610;51.790;21.590;2023-04-24T11:29:06;14.00;;;4.80;;
51523;SDS011;37610;51.790;21.590;2023-04-24T11:33:08;32.20;;;5.40;;
51523;SDS011;37610;51.790;21.590;2023-04-24T11:37:09;8.70;;;4.70;;
51523;SDS011;37610;51.790;21.590;2023-04-24T11:41:11;15.80;;;5.40;;
51523;SDS011;37610;51.790;21.590;2023-04-24T11:45:14;16.90;;;4.90;;
51523;SDS011;37610;51.790;21.590;2023-04-24T11:49:15;11.30;;;4.70;;
51523;SDS011;37610;51.790;21.590;2023-04-24T11:53:20;9.40;;;5.00;;
51523;SDS011;37610;51.790;21.590;2023-04-24T11:57:23;14.40;;;5.20;;
51523;SDS011;37610;51.790;21.590;2023-04-24T12:01:27;9.00;;;3.80;;
51523;SDS011;37610;51.790;21.590;2023-04-24T12:05:29;8.90;;;3.80;;
51523;SDS011;37610;51.790;21.590;2023-04-24T12:09:42;8.20;;;4.10;;
51523;SDS011;37610;51.790;21.590;2023-04-24T12:13:44;8.60;;;4.00;;
51523;SDS011;37610;51.790;21.590;2023-04-24T12:17:46;6.80;;;3.70;;
51523;SDS011;37610;51.790;21.590;2023-04-24T12:22:00;6.70;;;3.60;;
51523;SDS011;37610;51.790;21.590;2023-04-24T12:26:05;8.40;;;4.00;;
51523;SDS011;37610;51.790;21.590;2023-04-24T12:30:09;11.10;;;3.60;;
51523;SDS011;37610;51.790;21.590;2023-04-24T12:34:21;6.60;;;3.70;;
51523;SDS011;37610;51.790;21.590;2023-04-24T12:38:24;11.50;;;3.80;;
51523;SDS011;37610;51.790;21.590;2023-04-24T12:42:26;16.00;;;4.00;;
51523;SDS011;37610;51.790;21.590;2023-04-24T12:46:29;12.00;;;3.50;;
51523;SDS011;37610;51.790;21.590;2023-04-24T12:50:30;12.90;;;4.00;;
51523;SDS011;37610;51.790;21.590;2023-04-24T12:54:32;7.50;;;3.60;;
51523;SDS011;37610;51.790;21.590;2023-04-24T12:58:33;18.10;;;5.00;;
51523;SDS011;37610;51.790;21.590;2023-04-24T13:02:35;12.50;;;5.00;;
51523;SDS011;37610;51.790;21.590;2023-04-24T13:10:39;23.90;;;4.80;;
51523;SDS011;37610;51.790;21.590;2023-04-24T13:14:41;6.60;;;4.10;;
51523;SDS011;37610;51.790;21.590;2023-04-24T13:18:42;7.40;;;4.00;;
51523;SDS011;37610;51.790;21.590;2023-04-24T13:22:44;5.50;;;4.10;;
51523;SDS011;37610;51.790;21.590;2023-04-24T13:26:45;6.00;;;3.50;;
51523;SDS011;37610;51.790;21.590;2023-04-24T13:30:47;109.10;;;8.10;;
51523;SDS011;37610;51.790;21.590;2023-04-24T13:34:49;6.50;;;3.60;;
51523;SDS011;37610;51.790;21.590;2023-04-24T13:38:51;8.10;;;3.70;;
51523;SDS011;37610;51.790;21.590;2023-04-24T13:42:52;9.30;;;3.50;;
51523;SDS011;37610;51.790;21.590;2023-04-24T13:46:54;5.50;;;3.10;;
51523;SDS011;37610;51.790;21.590;2023-04-24T13:50:58;7.30;;;2.80;;
51523;SDS011;37610;51.790;21.590;2023-04-24T13:54:59;6.10;;;3.00;;
51523;SDS011;37610;51.790;21.590;2023-04-24T13:59:00;4.60;;;2.70;;
51523;SDS011;37610;51.790;21.590;2023-04-24T14:07:03;6.70;;;3.40;;
51523;SDS011;37610;51.790;21.590;2023-04-24T14:11:05;9.40;;;3.10;;
51523;SDS011;37610;51.790;21.590;2023-04-24T14:15:07;6.10;;;3.20;;
51523;SDS011;37610;51.790;21.590;2023-04-24T14:19:09;5.50;;;2.70;;
51523;SDS011;37610;51.790;21.590;2023-04-24T14:27:12;7.30;;;3.50;;
51523;SDS011;37610;51.790;21.590;2023-04-24T14:31:14;9.60;;;2.80;;
51523;SDS011;37610;51.790;21.590;2023-04-24T14:39:17;6.10;;;2.70;;
51523;SDS011;37610;51.790;21.590;2023-04-24T14:43:18;15.00;;;11.10;;
51523;SDS011;37610;51.790;21.590;2023-04-24T14:47:20;21.00;;;12.80;;
51523;SDS011;37610;51.790;21.590;2023-04-24T14:51:23;23.70;;;17.80;;
51523;SDS011;37610;51.790;21.590;2023-04-24T14:55:24;11.30;;;6.40;;
51523;SDS011;37610;51.790;21.590;2023-04-24T14:59:27;9.50;;;4.30;;
51523;SDS011;37610;51.790;21.590;2023-04-24T15:03:29;8.40;;;4.20;;
51523;SDS011;37610;51.790;21.590;2023-04-24T15:07:32;6.80;;;5.00;;
51523;SDS011;37610;51.790;21.590;2023-04-24T15:11:34;7.80;;;5.00;;
51523;SDS011;37610;51.790;21.590;2023-04-24T15:15:35;12.40;;;5.00;;
51523;SDS011;37610;51.790;21.590;2023-04-24T15:19:38;7.10;;;4.90;;
51523;SDS011;37610;51.790;21.590;2023-04-24T15:23:39;6.10;;;4.00;;
51523;SDS011;37610;51.790;21.590;2023-04-24T15:31:42;13.90;;;6.00;;
51523;SDS011;37610;51.790;21.590;2023-04-24T15:35:44;6.00;;;4.20;;
51523;SDS011;37610;51.790;21.590;2023-04-24T15:39:45;10.90;;;3.40;;
51523;SDS011;37610;51.790;21.590;2023-04-24T15:43:47;5.10;;;2.90;;
51523;SDS011;37610;51.790;21.590;2023-04-24T15:47:49;10.60;;;4.90;;
51523;SDS011;37610;51.790;21.590;2023-04-24T15:51:51;9.10;;;3.70;;
51523;SDS011;37610;51.790;21.590;2023-04-24T15:55:52;10.80;;;5.90;;
51523;SDS011;37610;51.790;21.590;2023-04-24T15:59:55;7.00;;;4.70;;
51523;SDS011;37610;51.790;21.590;2023-04-24T16:03:56;20.80;;;17.80;;
51523;SDS011;37610;51.790;21.590;2023-04-24T16:07:58;17.80;;;15.30;;
51523;SDS011;37610;51.790;21.590;2023-04-24T16:11:59;20.00;;;13.90;;
51523;SDS011;37610;51.790;21.590;2023-04-24T16:16:01;12.90;;;7.90;;
51523;SDS011;37610;51.790;21.590;2023-04-24T16:20:03;15.60;;;8.70;;
51523;SDS011;37610;51.790;21.590;2023-04-24T16:24:05;12.60;;;7.80;;
51523;SDS011;37610;51.790;21.590;2023-04-24T16:28:06;12.30;;;8.90;;
51523;SDS011;37610;51.790;21.590;2023-04-24T16:32:09;8.80;;;5.30;;
51523;SDS011;37610;51.790;21.590;2023-04-24T16:40:13;7.70;;;5.00;;
51523;SDS011;37610;51.790;21.590;2023-04-24T16:44:15;14.30;;;6.00;;
51523;SDS011;37610;51.790;21.590;2023-04-24T16:48:16;23.80;;;9.70;;
51523;SDS011;37610;51.790;21.590;2023-04-24T16:52:18;38.40;;;26.10;;
51523;SDS011;37610;51.790;21.590;2023-04-24T16:56:19;23.10;;;17.30;;
51523;SDS011;37610;51.790;21.590;2023-04-24T17:00:20;25.00;;;14.70;;
51523;SDS011;37610;51.790;21.590;2023-04-24T17:04:22;22.10;;;13.10;;
51523;SDS011;37610;51.790;21.590;2023-04-24T17:08:23;13.70;;;7.70;;
51523;SDS011;37610;51.790;21.590;2023-04-24T17:12:25;23.20;;;13.00;;
51523;SDS011;37610;51.790;21.590;2023-04-24T17:16:26;26.40;;;15.90;;
51523;SDS011;37610;51.790;21.590;2023-04-24T17:24:30;15.90;;;10.20;;
51523;SDS011;37610;51.790;21.590;2023-04-24T17:28:31;15.20;;;7.40;;
51523;SDS011;37610;51.790;21.590;2023-04-24T17:32:34;12.40;;;6.80;;
51523;SDS011;37610;51.790;21.590;2023-04-24T17:36:35;33.10;;;12.40;;
51523;SDS011;37610;51.790;21.590;2023-04-24T17:40:38;45.10;;;25.40;;
51523;SDS011;37610;51.790;21.590;2023-04-24T17:44:40;40.40;;;22.60;;
51523;SDS011;37610;51.790;21.590;2023-04-24T17:48:41;33.80;;;19.80;;
51523;SDS011;37610;51.790;21.590;2023-04-24T17:52:43;25.40;;;13.10;;
51523;SDS011;37610;51.790;21.590;2023-04-24T17:56:44;17.00;;;10.10;;
51523;SDS011;37610;51.790;21.590;2023-04-24T18:00:46;18.80;;;10.50;;
51523;SDS011;37610;51.790;21.590;2023-04-24T18:04:47;18.30;;;10.10;;
51523;SDS011;37610;51.790;21.590;2023-04-24T18:08:49;28.30;;;15.50;;
51523;SDS011;37610;51.790;21.590;2023-04-24T18:12:51;30.90;;;14.00;;
51523;SDS011;37610;51.790;21.590;2023-04-24T18:16:52;58.90;;;24.50;;
51523;SDS011;37610;51.790;21.590;2023-04-24T18:20:54;32.90;;;14.20;;
51523;SDS011;37610;51.790;21.590;2023-04-24T18:24:56;30.50;;;15.90;;
51523;SDS011;37610;51.790;21.590;2023-04-24T18:28:57;20.00;;;10.90;;
51523;SDS011;37610;51.790;21.590;2023-04-24T18:32:59;27.00;;;11.90;;
51523;SDS011;37610;51.790;21.590;2023-04-24T18:37:00;26.80;;;12.40;;
51523;SDS011;37610;51.790;21.590;2023-04-24T18:41:02;21.30;;;12.00;;
51523;SDS011;37610;51.790;21.590;2023-04-24T18:45:03;35.40;;;15.60;;
51523;SDS011;37610;51.790;21.590;2023-04-24T18:49:05;16.90;;;8.80;;
51523;SDS011;37610;51.790;21.590;2023-04-24T18:53:07;22.00;;;10.30;;
51523;SDS011;37610;51.790;21.590;2023-04-24T18:57:10;23.20;;;11.20;;
51523;SDS011;37610;51.790;21.590;2023-04-24T19:01:11;21.80;;;10.80;;
51523;SDS011;37610;51.790;21.590;2023-04-24T19:05:13;25.70;;;12.00;;
51523;SDS011;37610;51.790;21.590;2023-04-24T19:09:14;26.20;;;12.80;;
51523;SDS011;37610;51.790;21.590;2023-04-24T19:13:16;31.80;;;14.00;;
51523;SDS011;37610;51.790;21.590;2023-04-24T19:17:17;21.50;;;11.10;;
51523;SDS011;37610;51.790;21.590;2023-04-24T19:21:23;29.50;;;16.50;;
51523;SDS011;37610;51.790;21.590;2023-04-24T19:25:25;19.70;;;13.80;;
51523;SDS011;37610;51.790;21.590;2023-04-24T19:29:26;13.90;;;8.90;;
51523;SDS011;37610;51.790;21.590;2023-04-24T19:33:27;15.00;;;7.70;;
51523;SDS011;37610;51.790;21.590;2023-04-24T19:37:29;16.20;;;10.50;;
51523;SDS011;37610;51.790;21.590;2023-04-24T19:41:32;27.10;;;14.10;;
51523;SDS011;37610;51.790;21.590;2023-04-24T19:45:33;12.50;;;7.70;;
51523;SDS011;37610;51.790;21.590;2023-04-24T19:49:35;10.00;;;6.20;;
51523;SDS011;37610;51.790;21.590;2023-04-24T19:53:37;11.30;;;6.20;;
51523;SDS011;37610;51.790;21.590;2023-04-24T19:57:38;11.10;;;6.30;;
51523;SDS011;37610;51.790;21.590;2023-04-24T20:01:40;10.90;;;6.60;;
51523;SDS011;37610;51.790;21.590;2023-04-24T20:05:43;16.90;;;7.60;;
51523;SDS011;37610;51.790;21.590;2023-04-24T20:09:44;12.70;;;7.00;;
51523;SDS011;37610;51.790;21.590;2023-04-24T20:13:46;11.80;;;5.70;;
51523;SDS011;37610;51.790;21.590;2023-04-24T20:17:47;12.30;;;7.60;;
51523;SDS011;37610;51.790;21.590;2023-04-24T20:21:49;28.10;;;14.50;;
51523;SDS011;37610;51.790;21.590;2023-04-24T20:25:51;25.70;;;12.60;;
51523;SDS011;37610;51.790;21.590;2023-04-24T20:29:58;15.70;;;9.30;;
51523;SDS011;37610;51.790;21.590;2023-04-24T20:34:00;17.60;;;8.80;;
51523;SDS011;37610;51.790;21.590;2023-04-24T20:38:01;19.90;;;9.30;;
51523;SDS011;37610;51.790;21.590;2023-04-24T20:42:03;17.40;;;9.10;;
51523;SDS011;37610;51.790;21.590;2023-04-24T20:46:05;14.70;;;9.00;;
51523;SDS011;37610;51.790;21.590;2023-04-24T20:50:07;15.90;;;9.10;;
51523;SDS011;37610;51.790;21.590;2023-04-24T20:54:09;14.70;;;10.60;;
51523;SDS011;37610;51.790;21.590;2023-04-24T20:58:10;20.00;;;10.20;;
51523;SDS011;37610;51.790;21.590;2023-04-24T21:02:11;15.90;;;9.20;;
51523;SDS011;37610;51.790;21.590;2023-04-24T21:06:13;15.90;;;9.00;;
51523;SDS011;37610;51.790;21.590;2023-04-24T21:10:14;15.10;;;8.40;;
51523;SDS011;37610;51.790;21.590;2023-04-24T21:14:16;12.80;;;7.30;;
51523;SDS011;37610;51.790;21.590;2023-04-24T21:18:18;11.20;;;7.00;;
51523;SDS011;37610;51.790;21.590;2023-04-24T21:22:19;13.50;;;7.30;;
51523;SDS011;37610;51.790;21.590;2023-04-24T21:26:21;11.30;;;7.20;;
51523;SDS011;37610;51.790;21.590;2023-04-24T21:30:23;11.40;;;7.30;;
51523;SDS011;37610;51.790;21.590;2023-04-24T21:34:24;14.40;;;7.10;;
51523;SDS011;37610;51.790;21.590;2023-04-24T21:38:26;14.30;;;8.90;;
51523;SDS011;37610;51.790;21.590;2023-04-24T21:42:27;11.60;;;7.10;;
51523;SDS011;37610;51.790;21.590;2023-04-24T21:46:29;11.30;;;8.50;;
51523;SDS011;37610;51.790;21.590;2023-04-24T21:50:31;20.60;;;9.80;;
51523;SDS011;37610;51.790;21.590;2023-04-24T21:54:32;12.60;;;8.60;;
51523;SDS011;37610;51.790;21.590;2023-04-24T21:58:34;15.00;;;11.00;;
51523;SDS011;37610;51.790;21.590;2023-04-24T22:02:36;21.70;;;14.30;;
51523;SDS011;37610;51.790;21.590;2023-04-24T22:06:37;16.30;;;10.20;;
51523;SDS011;37610;51.790;21.590;2023-04-24T22:10:39;13.90;;;8.10;;
51523;SDS011;37610;51.790;21.590;2023-04-24T22:14:40;10.90;;;7.30;;
51523;SDS011;37610;51.790;21.590;2023-04-24T22:18:42;13.50;;;7.00;;
51523;SDS011;37610;51.790;21.590;2023-04-24T22:22:43;8.60;;;6.30;;
51523;SDS011;37610;51.790;21.590;2023-04-24T22:26:44;9.70;;;6.70;;
51523;SDS011;37610;51.790;21.590;2023-04-24T22:30:46;10.20;;;6.90;;
51523;SDS011;37610;51.790;21.590;2023-04-24T22:34:47;8.90;;;6.70;;
51523;SDS011;37610;51.790;21.590;2023-04-24T22:38:49;11.60;;;7.30;;
51523;SDS011;37610;51.790;21.590;2023-04-24T22:42:50;11.10;;;7.10;;
51523;SDS011;37610;51.790;21.590;2023-04-24T22:46:52;11.10;;;6.30;;
51523;SDS011;37610;51.790;21.590;2023-04-24T22:50:54;12.90;;;6.50;;
51523;SDS011;37610;51.790;21.590;2023-04-24T22:54:56;12.60;;;7.80;;
51523;SDS011;37610;51.790;21.590;2023-04-24T22:58:57;14.70;;;7.10;;
51523;SDS011;37610;51.790;21.590;2023-04-24T23:02:59;14.30;;;7.00;;
51523;SDS011;37610;51.790;21.590;2023-04-24T23:07:00;12.40;;;7.50;;
51523;SDS011;37610;51.790;21.590;2023-04-24T23:11:02;17.10;;;6.70;;
51523;SDS011;37610;51.790;21.590;2023-04-24T23:15:04;10.20;;;7.40;;
51523;SDS011;37610;51.790;21.590;2023-04-24T23:19:05;9.60;;;7.40;;
51523;SDS011;37610;51.790;21.590;2023-04-24T23:23:07;10.90;;;7.40;;
51523;SDS011;37610;51.790;21.590;2023-04-24T23:27:08;12.20;;;7.30;;
51523;SDS011;37610;51.790;21.590;2023-04-24T23:31:09;9.40;;;6.80;;
51523;SDS011;37610;51.790;21.590;2023-04-24T23:35:11;10.90;;;7.30;;
51523;SDS011;37610;51.790;21.590;2023-04-24T23:39:12;8.50;;;7.20;;
51523;SDS011;37610;51.790;21.590;2023-04-24T23:43:14;8.70;;;6.80;;
51523;SDS011;37610;51.790;21.590;2023-04-24T23:47:15;8.80;;;6.90;;
51523;SDS011;37610;51.790;21.590;2023-04-24T23:51:17;10.30;;;6.70;;
51523;SDS011;37610;51.790;21.590;2023-04-24T23:55:19;10.00;;;7.50;;
51523;SDS011;37610;51.790;21.590;2023-04-24T23:59:20;9.40;;;7.10;;
